createdAt,value
2023-06-11T00:01:53.001Z,90.03
2023-06-11T00:04:25.541Z,89.45
2023-06-11T00:07:00.296Z,89.97
2023-06-11T00:09:27.302Z,91.40
2023-06-11T00:11:54.371Z,89.80
2023-06-11T00:14:22.722Z,88.34
2023-06-11T00:16:51.319Z,89.60
2023-06-11T00:19:20.619Z,90.51
2023-06-11T00:21:47.469Z,89.78
2023-06-11T00:24:15.001Z,88.48
2023-06-11T00:26:42.465Z,89.28
2023-06-11T00:29:09.717Z,90.33
2023-06-11T00:31:36.788Z,91.71
2023-06-11T00:34:04.431Z,90.05
2023-06-11T00:36:33.151Z,88.68
2023-06-11T00:39:00.261Z,90.11
2023-06-11T00:41:30.588Z,91.23
2023-06-11T00:43:57.866Z,92.72
2023-06-11T00:46:25.311Z,91.95
2023-06-11T00:48:52.678Z,91.56
2023-06-11T00:51:22.079Z,91.44
2023-06-11T00:53:48.919Z,91.58
2023-06-11T00:56:18.111Z,92.91
2023-06-11T00:58:47.151Z,93.52
2023-06-11T01:01:17.965Z,93.03
2023-06-11T01:03:45.093Z,92.98
2023-06-11T01:06:17.818Z,94.18
2023-06-11T01:08:45.925Z,93.45
2023-06-11T01:11:22.084Z,92.18
2023-06-11T01:13:52.533Z,91.68
2023-06-11T01:16:38.132Z,92.05
2023-06-11T01:19:12.413Z,93.24
2023-06-11T01:21:41.408Z,91.03
2023-06-11T01:24:22.184Z,92.18
2023-06-11T01:27:05.602Z,93.83
2023-06-11T01:29:35.932Z,94.42
2023-06-11T01:32:04.155Z,93.25
2023-06-11T01:34:32.374Z,92.32
2023-06-11T01:37:00.704Z,91.36
2023-06-11T01:39:28.013Z,93.69
2023-06-11T01:42:02.118Z,94.49
2023-06-11T01:44:30.196Z,91.88
2023-06-11T01:46:57.299Z,92.15
2023-06-11T01:49:26.135Z,93.61
2023-06-11T01:51:52.973Z,93.06
2023-06-11T01:54:19.715Z,90.53
2023-06-11T01:56:46.516Z,90.02
2023-06-11T01:59:18.422Z,90.48
2023-06-11T02:01:45.292Z,91.35
2023-06-11T02:04:12.265Z,93.43
2023-06-11T02:06:39.457Z,91.91
2023-06-11T02:09:06.123Z,90.43
2023-06-11T02:11:33.053Z,90.81
2023-06-11T02:13:59.875Z,91.33
2023-06-11T02:16:26.836Z,92.53
2023-06-11T02:18:54.701Z,90.96
2023-06-11T02:21:21.587Z,90.36
2023-06-11T02:23:49.417Z,91.10
2023-06-11T02:26:16.142Z,92.73
2023-06-11T02:28:43.395Z,93.04
2023-06-11T02:31:10.442Z,91.12
2023-06-11T02:33:37.942Z,90.54
2023-06-11T02:36:05.591Z,90.13
2023-06-11T02:38:33.330Z,92.04
2023-06-11T02:41:00.372Z,93.93
2023-06-11T02:43:27.220Z,91.39
2023-06-11T02:45:54.154Z,89.94
2023-06-11T02:48:21.105Z,89.68
2023-06-11T02:50:47.957Z,90.98
2023-06-11T02:53:15.204Z,91.72
2023-06-11T02:55:42.106Z,92.02
2023-06-11T02:58:09.208Z,93.37
2023-06-11T03:00:36.140Z,95.11
2023-06-11T03:03:03.066Z,96.27
2023-06-11T03:05:35.380Z,96.40
2023-06-11T03:08:03.122Z,94.72
2023-06-11T03:10:30.661Z,95.67
2023-06-11T03:12:57.825Z,96.90
2023-06-11T03:15:25.142Z,97.29
2023-06-11T03:17:52.215Z,96.73
2023-06-11T03:20:20.127Z,95.55
2023-06-11T03:22:47.460Z,96.18
2023-06-11T03:25:15.163Z,98.07
2023-06-11T03:27:42.156Z,98.61
2023-06-11T03:30:09.764Z,96.85
2023-06-11T03:32:41.472Z,96.99
2023-06-11T03:35:09.858Z,98.15
2023-06-11T03:37:37.413Z,98.35
2023-06-11T03:40:05.809Z,96.84
2023-06-11T03:42:32.981Z,97.39
2023-06-11T03:44:59.690Z,96.90
2023-06-11T03:47:26.849Z,98.54
2023-06-11T03:49:53.687Z,97.43
2023-06-11T03:52:21.132Z,94.85
2023-06-11T03:54:48.121Z,95.11
2023-06-11T03:57:18.501Z,96.72
2023-06-11T03:59:45.925Z,96.32
2023-06-11T04:02:12.706Z,94.11
2023-06-11T04:04:39.994Z,95.68
2023-06-11T04:07:06.822Z,96.48
2023-06-11T04:09:33.838Z,96.46
2023-06-11T04:12:00.790Z,95.64
2023-06-11T04:14:27.771Z,94.72
2023-06-11T04:16:55.696Z,96.27
2023-06-11T04:19:22.982Z,98.14
2023-06-11T04:21:50.206Z,97.08
2023-06-11T04:24:17.215Z,96.17
2023-06-11T04:26:44.821Z,97.01
2023-06-11T04:29:14.117Z,97.77
2023-06-11T04:31:42.765Z,98.15
2023-06-11T04:34:11.596Z,97.89
2023-06-11T04:36:39.154Z,98.83
2023-06-11T04:39:08.062Z,98.66
2023-06-11T04:41:37.246Z,99.70
2023-06-11T04:44:04.396Z,99.57
2023-06-11T04:46:35.836Z,98.78
2023-06-11T04:49:07.288Z,99.94
2023-06-11T04:51:35.165Z,99.99
2023-06-11T04:54:08.180Z,100.00
2023-06-11T04:56:38.373Z,100.00
2023-06-11T04:59:07.046Z,99.98
2023-06-11T05:01:33.930Z,99.99
2023-06-11T05:04:02.727Z,100.00
2023-06-11T05:06:30.548Z,99.96
2023-06-11T05:08:58.145Z,100.00
2023-06-11T05:11:25.566Z,99.95
2023-06-11T05:13:53.774Z,100.00
2023-06-11T05:16:21.664Z,99.52
2023-06-11T05:18:49.437Z,98.48
2023-06-11T05:21:16.731Z,99.36
2023-06-11T05:23:44.204Z,100.00
2023-06-11T05:26:14.757Z,100.00
2023-06-11T05:28:45.156Z,99.87
2023-06-11T05:31:13.734Z,99.78
2023-06-11T05:33:45.892Z,99.97
2023-06-11T05:36:13.863Z,99.91
2023-06-11T05:38:41.240Z,100.00
2023-06-11T05:41:08.180Z,100.00
2023-06-11T05:43:36.451Z,100.00
2023-06-11T05:46:03.641Z,100.00
2023-06-11T05:48:32.013Z,99.99
2023-06-11T05:50:58.959Z,100.00
2023-06-11T05:53:25.916Z,100.00
2023-06-11T05:55:55.360Z,100.00
2023-06-11T05:58:23.016Z,99.99
2023-06-11T06:00:50.786Z,99.68
2023-06-11T06:03:18.052Z,99.90
2023-06-11T06:05:46.444Z,100.00
2023-06-11T06:08:13.355Z,100.00
2023-06-11T06:10:41.424Z,99.93
2023-06-11T06:13:08.382Z,99.20
2023-06-11T06:15:36.340Z,99.91
2023-06-11T06:18:04.101Z,97.88
2023-06-11T06:20:37.212Z,97.77
2023-06-11T06:23:05.373Z,98.21
2023-06-11T06:25:34.508Z,99.33
2023-06-11T06:28:01.715Z,97.42
2023-06-11T06:30:29.587Z,97.32
2023-06-11T06:32:58.865Z,97.99
2023-06-11T06:35:26.956Z,98.84
2023-06-11T06:37:53.926Z,99.77
2023-06-11T06:40:21.260Z,98.72
2023-06-11T06:42:48.301Z,97.32
2023-06-11T06:45:17.549Z,96.76
2023-06-11T06:47:44.574Z,97.90
2023-06-11T06:54:13.994Z,97.28
2023-06-11T06:56:41.647Z,97.53
2023-06-11T06:59:09.330Z,98.33
2023-06-11T07:01:38.498Z,97.74
2023-06-11T07:04:07.320Z,96.54
2023-06-11T07:10:18.163Z,96.80
2023-06-11T07:12:45.443Z,95.48
2023-06-11T07:15:12.836Z,94.54
2023-06-11T07:17:41.239Z,95.86
2023-06-11T07:20:10.563Z,96.23
2023-06-11T07:22:38.775Z,94.47
2023-06-11T07:25:07.546Z,93.94
2023-06-11T07:27:35.920Z,94.51
2023-06-11T07:30:04.812Z,95.47
2023-06-11T07:32:33.551Z,95.29
2023-06-11T07:35:00.998Z,94.20
2023-06-11T07:37:28.618Z,94.39
2023-06-11T07:39:55.873Z,95.42
2023-06-11T07:42:23.127Z,95.38
2023-06-11T07:44:51.808Z,93.59
2023-06-11T07:47:19.090Z,92.61
2023-06-11T07:49:46.521Z,93.95
2023-06-11T07:52:14.065Z,94.26
2023-06-11T07:54:42.190Z,93.90
2023-06-11T07:57:10.982Z,92.65
2023-06-11T07:59:38.800Z,93.73
2023-06-11T08:02:07.285Z,94.61
2023-06-11T08:04:34.640Z,94.93
2023-06-11T08:07:02.117Z,94.22
2023-06-11T08:09:31.217Z,93.99
2023-06-11T08:11:58.749Z,94.58
2023-06-11T08:14:26.827Z,95.75
2023-06-11T08:16:54.211Z,95.38
2023-06-11T08:19:23.008Z,95.54
2023-06-11T08:21:50.208Z,95.10
2023-06-11T08:24:19.356Z,96.89
2023-06-11T08:26:46.707Z,96.80
2023-06-11T08:29:14.216Z,94.86
2023-06-11T08:31:41.990Z,96.21
2023-06-11T08:34:10.616Z,97.72
2023-06-11T08:36:38.432Z,96.86
2023-06-11T08:39:06.021Z,95.37
2023-06-11T08:41:33.247Z,94.39
2023-06-11T08:44:00.434Z,95.15
2023-06-11T08:46:27.842Z,97.10
2023-06-11T08:49:01.154Z,96.43
2023-06-11T08:51:29.438Z,94.90
2023-06-11T08:53:56.776Z,94.90
2023-06-11T08:56:24.440Z,96.29
2023-06-11T08:58:51.711Z,93.54
2023-06-11T09:01:21.941Z,91.71
2023-06-11T09:03:49.310Z,91.50
2023-06-11T09:06:16.832Z,92.65
2023-06-11T09:08:44.071Z,92.98
2023-06-11T09:11:11.563Z,91.93
2023-06-11T09:13:40.828Z,89.93
2023-06-11T09:16:08.224Z,89.37
2023-06-11T09:18:35.671Z,90.22
2023-06-11T09:21:03.403Z,91.67
2023-06-11T09:23:34.881Z,90.97
2023-06-11T09:26:02.494Z,88.87
2023-06-11T09:28:34.178Z,88.93
2023-06-11T09:31:02.453Z,90.41
2023-06-11T09:33:31.541Z,91.13
2023-06-11T09:35:59.528Z,90.83
2023-06-11T09:38:26.803Z,90.20
2023-06-11T09:40:57.822Z,89.42
2023-06-11T09:43:25.175Z,89.57
2023-06-11T09:45:53.951Z,91.02
2023-06-11T09:48:24.080Z,90.60
2023-06-11T09:50:54.611Z,89.90
2023-06-11T09:53:23.323Z,90.60
2023-06-11T09:56:05.430Z,92.18
2023-06-11T09:58:38.282Z,91.12
2023-06-11T10:01:07.350Z,91.08
2023-06-11T10:03:35.116Z,91.54
2023-06-11T10:06:06.299Z,92.43
2023-06-11T10:08:33.952Z,92.67
2023-06-11T10:11:04.503Z,90.51
2023-06-11T10:13:35.849Z,90.04
2023-06-11T10:16:04.647Z,90.49
2023-06-11T10:18:32.508Z,91.02
2023-06-11T10:21:04.131Z,90.60
2023-06-11T10:23:39.872Z,89.59
2023-06-11T10:26:08.054Z,88.71
2023-06-11T10:28:42.410Z,88.85
2023-06-11T10:31:09.834Z,88.76
2023-06-11T10:33:38.464Z,87.10
2023-06-11T10:36:07.734Z,86.71
2023-06-11T10:38:38.865Z,85.93
2023-06-11T10:41:06.218Z,86.66
2023-06-11T10:43:36.455Z,85.25
2023-06-11T10:46:04.812Z,84.76
2023-06-11T10:48:33.444Z,83.81
2023-06-11T10:51:04.327Z,84.53
2023-06-11T10:53:38.930Z,84.58
2023-06-11T10:56:06.838Z,85.22
2023-06-11T10:58:34.632Z,84.36
2023-06-11T11:01:04.401Z,83.90
2023-06-11T11:03:32.030Z,84.18
2023-06-11T11:05:59.422Z,84.86
2023-06-11T11:08:27.536Z,84.82
2023-06-11T11:11:00.170Z,83.67
2023-06-11T11:13:31.839Z,83.84
2023-06-11T11:15:59.578Z,82.58
2023-06-11T11:18:27.899Z,82.13
2023-06-11T11:20:55.627Z,83.25
2023-06-11T11:23:26.251Z,82.62
2023-06-11T11:25:53.595Z,81.19
2023-06-11T11:28:20.969Z,81.35
2023-06-11T11:30:49.645Z,82.49
2023-06-11T11:33:16.974Z,83.04
2023-06-11T11:35:54.379Z,83.86
2023-06-11T11:38:25.042Z,82.11
2023-06-11T11:40:56.578Z,83.53
2023-06-11T11:43:24.453Z,83.41
2023-06-11T11:45:53.573Z,83.99
2023-06-11T11:48:20.959Z,83.49
2023-06-11T11:50:51.139Z,81.12
2023-06-11T11:53:19.086Z,81.27
2023-06-11T11:56:01.069Z,80.97
2023-06-11T11:58:42.526Z,82.63
2023-06-11T12:01:22.560Z,82.62
2023-06-11T12:04:00.393Z,81.85
2023-06-11T12:06:28.318Z,80.83
2023-06-11T12:08:56.215Z,79.85
2023-06-11T12:11:23.610Z,81.67
2023-06-11T12:13:51.074Z,82.02
2023-06-11T12:16:21.528Z,81.57
2023-06-11T12:18:49.570Z,81.32
2023-06-11T12:21:16.805Z,81.24
2023-06-11T12:23:44.311Z,82.07
2023-06-11T12:26:12.231Z,82.67
2023-06-11T12:28:39.682Z,82.82
2023-06-11T12:31:07.598Z,82.36
2023-06-11T12:33:35.424Z,81.37
2023-06-11T12:36:02.681Z,81.06
2023-06-11T12:38:30.021Z,80.99
2023-06-11T12:40:57.273Z,80.71
2023-06-11T12:43:24.469Z,79.60
2023-06-11T12:45:51.821Z,79.45
2023-06-11T12:48:19.237Z,79.93
2023-06-11T12:50:46.400Z,79.90
2023-06-11T12:53:13.633Z,80.53
2023-06-11T12:55:40.922Z,80.11
2023-06-11T12:58:10.804Z,80.61
2023-06-11T13:00:38.397Z,80.15
2023-06-11T13:03:06.254Z,79.10
2023-06-11T13:05:34.538Z,79.08
2023-06-11T13:08:02.269Z,78.93
2023-06-11T13:10:29.744Z,79.34
2023-06-11T13:12:58.711Z,78.90
2023-06-11T13:15:26.423Z,78.66
2023-06-11T13:17:53.867Z,78.23
2023-06-11T13:20:22.410Z,78.12
2023-06-11T13:22:50.716Z,78.73
2023-06-11T13:25:17.938Z,80.01
2023-06-11T13:27:45.236Z,80.77
2023-06-11T13:30:13.524Z,81.31
2023-06-11T13:32:41.050Z,80.37
2023-06-11T13:35:08.702Z,79.27
2023-06-11T13:37:36.665Z,80.25
2023-06-11T13:40:05.477Z,80.55
2023-06-11T13:42:32.929Z,80.43
2023-06-11T13:45:03.965Z,80.38
2023-06-11T13:47:32.083Z,79.56
2023-06-11T13:49:59.823Z,80.63
2023-06-11T13:52:27.165Z,81.59
2023-06-11T13:54:54.439Z,82.27
2023-06-11T13:57:21.672Z,82.38
2023-06-11T13:59:49.168Z,80.90
2023-06-11T14:02:16.420Z,79.17
2023-06-11T14:04:43.850Z,80.29
2023-06-11T14:07:11.108Z,80.48
2023-06-11T14:09:40.186Z,80.59
2023-06-11T14:12:10.829Z,81.00
2023-06-11T14:14:38.284Z,80.28
2023-06-11T14:17:06.996Z,81.20
2023-06-11T14:19:34.382Z,81.75
2023-06-11T14:22:01.790Z,82.59
2023-06-11T14:24:29.290Z,82.86
2023-06-11T14:26:57.219Z,82.51
2023-06-11T14:29:24.570Z,80.15
2023-06-11T14:31:59.184Z,79.77
2023-06-11T14:34:26.867Z,80.63
2023-06-11T14:36:54.298Z,81.96
2023-06-11T14:39:21.496Z,81.77
2023-06-11T14:41:48.704Z,81.17
2023-06-11T14:44:15.996Z,81.11
2023-06-11T14:46:43.401Z,80.26
2023-06-11T14:49:11.917Z,81.44
2023-06-11T14:51:39.462Z,81.30
2023-06-11T14:54:06.803Z,81.48
2023-06-11T14:56:34.155Z,81.29
2023-06-11T14:59:01.756Z,80.78
2023-06-11T15:01:29.393Z,80.91
2023-06-11T15:03:56.974Z,81.57
2023-06-11T15:06:24.393Z,81.50
2023-06-11T15:08:54.103Z,80.89
2023-06-11T15:11:21.585Z,79.99
2023-06-11T15:13:48.839Z,80.29
2023-06-11T15:16:16.601Z,80.60
2023-06-11T15:18:43.935Z,80.68
2023-06-11T15:21:11.041Z,81.58
2023-06-11T15:23:39.300Z,80.41
2023-06-11T15:26:06.507Z,79.42
2023-06-11T15:28:34.009Z,79.26
2023-06-11T15:31:01.428Z,79.26
2023-06-11T15:33:28.978Z,79.75
2023-06-11T15:35:56.148Z,80.28
2023-06-11T15:38:24.676Z,80.03
2023-06-11T15:40:52.988Z,78.90
2023-06-11T15:43:20.873Z,79.84
2023-06-11T15:45:50.468Z,80.50
2023-06-11T15:48:18.475Z,81.82
2023-06-11T15:50:45.890Z,81.59
2023-06-11T15:53:13.038Z,80.58
2023-06-11T15:55:40.957Z,80.89
2023-06-11T15:58:09.147Z,80.65
2023-06-11T16:00:36.432Z,81.07
2023-06-11T16:03:04.165Z,80.95
2023-06-11T16:05:31.653Z,79.54
2023-06-11T16:07:59.543Z,78.18
2023-06-11T16:10:26.874Z,78.78
2023-06-11T16:12:57.300Z,80.34
2023-06-11T16:15:25.394Z,80.44
2023-06-11T16:17:52.691Z,80.75
2023-06-11T16:20:20.116Z,79.28
2023-06-11T16:22:47.434Z,78.94
2023-06-11T16:25:15.357Z,78.66
2023-06-11T16:27:44.106Z,79.12
2023-06-11T16:30:13.339Z,79.60
2023-06-11T16:32:41.110Z,80.55
2023-06-11T16:35:09.337Z,81.42
2023-06-11T16:37:38.322Z,82.51
2023-06-11T16:40:06.698Z,83.17
2023-06-11T16:42:34.361Z,83.01
2023-06-11T16:45:01.921Z,82.94
2023-06-11T16:47:29.296Z,81.16
2023-06-11T16:49:59.189Z,80.47
2023-06-11T16:52:27.360Z,82.01
2023-06-11T16:55:00.912Z,82.60
2023-06-11T16:57:29.344Z,83.27
2023-06-11T16:59:58.900Z,81.88
2023-06-11T17:02:26.164Z,80.81
2023-06-11T17:04:54.992Z,82.14
2023-06-11T17:07:22.315Z,82.73
2023-06-11T17:09:49.603Z,82.53
2023-06-11T17:12:17.371Z,81.85
2023-06-11T17:14:44.935Z,81.78
2023-06-11T17:17:12.203Z,80.41
2023-06-11T17:19:45.473Z,80.93
2023-06-11T17:22:13.142Z,82.04
2023-06-11T17:24:41.009Z,82.41
2023-06-11T17:27:08.651Z,81.25
2023-06-11T17:29:35.912Z,81.16
2023-06-11T17:32:03.676Z,81.44
2023-06-11T17:34:31.033Z,82.72
2023-06-11T17:36:58.176Z,83.39
2023-06-11T17:39:25.460Z,83.49
2023-06-11T17:41:52.683Z,83.84
2023-06-11T17:44:20.135Z,85.19
2023-06-11T17:46:48.113Z,86.38
2023-06-11T17:49:15.462Z,87.38
2023-06-11T17:51:43.392Z,88.03
2023-06-11T17:54:12.021Z,86.29
2023-06-11T17:56:39.370Z,85.59
2023-06-11T17:59:07.546Z,86.31
2023-06-11T18:01:35.933Z,87.90
2023-06-11T18:04:04.091Z,88.84
2023-06-11T18:06:33.906Z,89.08
2023-06-11T18:09:01.168Z,88.90
2023-06-11T18:11:28.623Z,89.60
2023-06-11T18:13:56.382Z,91.31
2023-06-11T18:16:23.730Z,89.02
2023-06-11T18:18:51.409Z,88.98
2023-06-11T18:21:20.440Z,88.85
2023-06-11T18:23:47.532Z,90.33
2023-06-11T18:26:14.652Z,91.69
2023-06-11T18:28:42.078Z,91.63
2023-06-11T18:31:09.081Z,91.16
2023-06-11T18:33:36.270Z,92.09
2023-06-11T18:36:03.644Z,92.73
2023-06-11T18:38:30.923Z,93.00
2023-06-11T18:40:57.989Z,92.53
2023-06-11T18:43:25.173Z,91.56
2023-06-11T18:45:52.171Z,90.68
2023-06-11T18:48:19.187Z,91.75
2023-06-11T18:50:46.292Z,91.19
2023-06-11T18:53:13.741Z,88.81
2023-06-11T18:56:36.081Z,86.44
2023-06-11T18:59:05.808Z,88.24
2023-06-11T19:01:33.747Z,87.86
2023-06-11T19:04:02.144Z,89.47
2023-06-11T19:06:30.316Z,89.23
2023-06-11T19:08:58.180Z,88.19
2023-06-11T19:11:26.270Z,88.07
2023-06-11T19:13:54.244Z,89.51
2023-06-11T19:16:22.245Z,90.67
2023-06-11T19:18:50.170Z,90.10
2023-06-11T19:21:20.484Z,89.03
2023-06-11T19:23:48.313Z,88.73
2023-06-11T19:26:17.662Z,88.33
2023-06-11T19:28:45.525Z,89.17
2023-06-11T19:31:13.420Z,88.88
2023-06-11T19:33:41.256Z,88.59
2023-06-11T19:36:09.302Z,87.65
2023-06-11T19:38:37.294Z,88.46
2023-06-11T19:41:05.472Z,89.00
2023-06-11T19:43:33.369Z,87.98
2023-06-11T19:46:01.306Z,88.32
2023-06-11T19:48:29.170Z,88.62
2023-06-11T19:50:57.148Z,88.71
2023-06-11T19:53:25.010Z,88.37
2023-06-11T19:55:52.803Z,88.09
2023-06-11T19:58:20.847Z,87.94
2023-06-11T20:00:48.716Z,88.48
2023-06-11T20:03:16.691Z,89.02
2023-06-11T20:05:44.805Z,88.95
2023-06-11T20:08:15.213Z,89.80
2023-06-11T20:10:45.368Z,89.32
2023-06-11T20:13:13.283Z,91.12
2023-06-11T20:15:41.175Z,91.87
2023-06-11T20:18:09.049Z,92.41
2023-06-11T20:20:36.873Z,91.73
2023-06-11T20:23:04.862Z,91.25
2023-06-11T20:25:32.721Z,91.94
2023-06-11T20:28:00.844Z,93.84
2023-06-11T20:30:29.057Z,93.93
2023-06-11T20:32:56.827Z,93.11
2023-06-11T20:35:24.794Z,92.96
2023-06-11T20:37:52.863Z,93.21
2023-06-11T20:40:20.733Z,94.36
2023-06-11T20:42:48.503Z,93.19
2023-06-11T20:45:16.582Z,91.91
2023-06-11T20:47:44.597Z,92.02
2023-06-11T20:50:12.919Z,93.71
2023-06-11T20:52:41.340Z,95.18
2023-06-11T20:55:09.978Z,94.24
2023-06-11T20:57:37.726Z,92.80
2023-06-11T21:00:06.565Z,93.80
2023-06-11T21:02:34.390Z,95.66
2023-06-11T21:05:02.365Z,96.95
2023-06-11T21:07:30.243Z,96.37
2023-06-11T21:09:58.072Z,94.95
2023-06-11T21:12:26.560Z,95.69
2023-06-11T21:14:54.445Z,96.88
2023-06-11T21:17:22.286Z,97.80
2023-06-11T21:19:50.160Z,97.94
2023-06-11T21:22:17.922Z,97.15
2023-06-11T21:24:45.790Z,97.37
2023-06-11T21:27:13.668Z,97.98
2023-06-11T21:29:41.979Z,98.58
2023-06-11T21:32:10.001Z,97.20
2023-06-11T21:34:38.180Z,96.70
2023-06-11T21:37:06.758Z,97.76
2023-06-11T21:39:34.663Z,98.22
2023-06-11T21:42:02.486Z,97.79
2023-06-11T21:44:30.619Z,95.98
2023-06-11T21:47:00.364Z,96.57
2023-06-11T21:49:28.238Z,97.14
2023-06-11T21:51:56.308Z,97.90
2023-06-11T21:54:24.176Z,97.11
2023-06-11T21:56:52.250Z,96.05
2023-06-11T21:59:20.036Z,96.27
2023-06-11T22:01:47.992Z,96.72
2023-06-11T22:04:18.084Z,96.96
2023-06-11T22:06:46.913Z,95.51
2023-06-11T22:09:14.653Z,95.73
2023-06-11T22:11:44.015Z,96.39
2023-06-11T22:14:13.077Z,96.88
2023-06-11T22:16:47.097Z,95.68
2023-06-11T22:19:15.036Z,95.38
2023-06-11T22:21:42.904Z,96.03
2023-06-11T22:24:12.296Z,95.99
2023-06-11T22:26:45.005Z,96.69
2023-06-11T22:29:13.683Z,94.90
2023-06-11T22:31:41.601Z,95.13
2023-06-11T22:34:09.543Z,96.02
2023-06-11T22:36:37.993Z,96.51
2023-06-11T22:39:06.669Z,95.54
2023-06-11T22:41:34.455Z,94.71
2023-06-11T22:44:02.302Z,94.61
2023-06-11T22:46:30.199Z,94.77
2023-06-11T22:48:58.526Z,95.74
2023-06-11T22:51:27.333Z,95.64
2023-06-11T22:53:55.206Z,94.94
2023-06-11T22:56:24.295Z,95.61
2023-06-11T22:58:52.804Z,96.33
2023-06-11T23:01:22.129Z,95.46
2023-06-11T23:03:50.164Z,94.73
2023-06-11T23:06:18.894Z,94.86
2023-06-11T23:08:47.129Z,95.85
2023-06-11T23:11:15.090Z,95.72
2023-06-11T23:13:42.877Z,94.25
2023-06-11T23:16:11.811Z,93.36
2023-06-11T23:18:39.707Z,93.96
2023-06-11T23:21:07.799Z,94.22
2023-06-11T23:23:38.886Z,94.45
2023-06-11T23:26:11.032Z,93.25
2023-06-11T23:28:38.982Z,93.22
2023-06-11T23:31:07.430Z,93.58
2023-06-11T23:33:35.419Z,94.36
2023-06-11T23:36:03.281Z,94.75
2023-06-11T23:38:31.034Z,93.52
2023-06-11T23:40:58.933Z,92.61
2023-06-11T23:43:26.862Z,93.42
2023-06-11T23:45:54.734Z,95.20
2023-06-11T23:48:22.758Z,95.23
2023-06-11T23:50:50.668Z,94.50
2023-06-11T23:53:18.695Z,93.24
2023-06-11T23:55:46.521Z,95.16
2023-06-11T23:58:22.001Z,95.57
